sensor_id;sensor_type;location;lat;lon;timestamp;temperature;humidity
60473;DHT22;46318;52.716;6.444;2023-04-25T00:00:28;6.80;99.90
60473;DHT22;46318;52.716;6.444;2023-04-25T00:02:54;6.80;99.90
60473;DHT22;46318;52.716;6.444;2023-04-25T00:05:26;6.80;99.90
60473;DHT22;46318;52.716;6.444;2023-04-25T00:07:52;6.70;99.90
60473;DHT22;46318;52.716;6.444;2023-04-25T00:10:19;6.70;99.90
60473;DHT22;46318;52.716;6.444;2023-04-25T00:12:45;6.70;99.90
60473;DHT22;46318;52.716;6.444;2023-04-25T00:15:11;6.60;99.90
60473;DHT22;46318;52.716;6.444;2023-04-25T00:17:37;6.60;99.90
60473;DHT22;46318;52.716;6.444;2023-04-25T00:20:04;6.60;99.90
60473;DHT22;46318;52.716;6.444;2023-04-25T00:22:32;6.60;99.90
60473;DHT22;46318;52.716;6.444;2023-04-25T00:24:59;6.50;99.90
60473;DHT22;46318;52.716;6.444;2023-04-25T00:27:26;6.50;99.90
60473;DHT22;46318;52.716;6.444;2023-04-25T00:29:52;6.50;99.90
60473;DHT22;46318;52.716;6.444;2023-04-25T00:32:18;6.40;99.90
60473;DHT22;46318;52.716;6.444;2023-04-25T00:34:43;6.40;99.90
60473;DHT22;46318;52.716;6.444;2023-04-25T00:37:09;6.40;99.90
60473;DHT22;46318;52.716;6.444;2023-04-25T00:39:36;6.30;99.90
60473;DHT22;46318;52.716;6.444;2023-04-25T00:42:02;6.30;99.90
60473;DHT22;46318;52.716;6.444;2023-04-25T00:44:29;6.30;99.90
60473;DHT22;46318;52.716;6.444;2023-04-25T00:46:57;6.20;99.90
60473;DHT22;46318;52.716;6.444;2023-04-25T00:49:23;6.20;99.90
60473;DHT22;46318;52.716;6.444;2023-04-25T00:51:49;6.20;99.90
60473;DHT22;46318;52.716;6.444;2023-04-25T00:54:16;6.20;99.90
60473;DHT22;46318;52.716;6.444;2023-04-25T00:56:42;6.20;99.90
60473;DHT22;46318;52.716;6.444;2023-04-25T00:59:09;6.10;99.90
60473;DHT22;46318;52.716;6.444;2023-04-25T01:01:35;6.10;99.90
60473;DHT22;46318;52.716;6.444;2023-04-25T01:04:01;6.00;99.90
60473;DHT22;46318;52.716;6.444;2023-04-25T01:06:27;6.00;99.90
60473;DHT22;46318;52.716;6.444;2023-04-25T01:08:53;6.00;99.90
60473;DHT22;46318;52.716;6.444;2023-04-25T01:11:20;6.00;99.90
60473;DHT22;46318;52.716;6.444;2023-04-25T01:13:46;5.90;99.90
60473;DHT22;46318;52.716;6.444;2023-04-25T01:16:12;5.90;99.90
60473;DHT22;46318;52.716;6.444;2023-04-25T01:18:41;5.90;99.90
60473;DHT22;46318;52.716;6.444;2023-04-25T01:21:09;5.90;99.90
60473;DHT22;46318;52.716;6.444;2023-04-25T01:23:37;5.90;99.90
60473;DHT22;46318;52.716;6.444;2023-04-25T01:26:08;5.80;99.90
60473;DHT22;46318;52.716;6.444;2023-04-25T01:28:35;5.80;99.90
60473;DHT22;46318;52.716;6.444;2023-04-25T01:31:01;5.80;99.90
60473;DHT22;46318;52.716;6.444;2023-04-25T01:33:27;5.80;99.90
60473;DHT22;46318;52.716;6.444;2023-04-25T01:35:53;5.70;99.90
60473;DHT22;46318;52.716;6.444;2023-04-25T01:38:19;5.70;99.90
60473;DHT22;46318;52.716;6.444;2023-04-25T01:40:45;5.70;99.90
60473;DHT22;46318;52.716;6.444;2023-04-25T01:43:14;5.70;99.90
60473;DHT22;46318;52.716;6.444;2023-04-25T01:45:41;5.70;99.90
60473;DHT22;46318;52.716;6.444;2023-04-25T01:48:09;5.70;99.90
60473;DHT22;46318;52.716;6.444;2023-04-25T01:50:40;5.60;99.90
60473;DHT22;46318;52.716;6.444;2023-04-25T01:53:09;5.60;99.90
60473;DHT22;46318;52.716;6.444;2023-04-25T01:55:36;5.60;99.90
60473;DHT22;46318;52.716;6.444;2023-04-25T01:58:02;5.60;99.90
60473;DHT22;46318;52.716;6.444;2023-04-25T02:00:29;5.60;99.90
60473;DHT22;46318;52.716;6.444;2023-04-25T02:02:58;5.60;99.90
60473;DHT22;46318;52.716;6.444;2023-04-25T02:05:24;5.60;99.90
60473;DHT22;46318;52.716;6.444;2023-04-25T02:07:49;5.60;99.90
60473;DHT22;46318;52.716;6.444;2023-04-25T02:10:15;5.60;99.90
60473;DHT22;46318;52.716;6.444;2023-04-25T02:12:41;5.50;99.90
60473;DHT22;46318;52.716;6.444;2023-04-25T02:15:07;5.60;99.90
60473;DHT22;46318;52.716;6.444;2023-04-25T02:17:33;5.50;99.90
60473;DHT22;46318;52.716;6.444;2023-04-25T02:19:59;5.60;99.90
60473;DHT22;46318;52.716;6.444;2023-04-25T02:22:25;5.60;99.90
60473;DHT22;46318;52.716;6.444;2023-04-25T02:24:54;5.50;99.90
60473;DHT22;46318;52.716;6.444;2023-04-25T02:27:20;5.60;99.90
60473;DHT22;46318;52.716;6.444;2023-04-25T02:29:46;5.50;99.90
60473;DHT22;46318;52.716;6.444;2023-04-25T02:32:12;5.50;99.90
60473;DHT22;46318;52.716;6.444;2023-04-25T02:34:37;5.50;99.90
60473;DHT22;46318;52.716;6.444;2023-04-25T02:37:03;5.50;99.90
60473;DHT22;46318;52.716;6.444;2023-04-25T02:39:29;5.50;99.90
60473;DHT22;46318;52.716;6.444;2023-04-25T02:41:55;5.50;99.90
60473;DHT22;46318;52.716;6.444;2023-04-25T02:44:21;5.50;99.90
60473;DHT22;46318;52.716;6.444;2023-04-25T02:46:47;5.50;99.90
60473;DHT22;46318;52.716;6.444;2023-04-25T02:49:12;5.50;99.90
60473;DHT22;46318;52.716;6.444;2023-04-25T02:51:38;5.50;99.90
60473;DHT22;46318;52.716;6.444;2023-04-25T02:54:04;5.50;99.90
60473;DHT22;46318;52.716;6.444;2023-04-25T02:56:31;5.50;99.90
60473;DHT22;46318;52.716;6.444;2023-04-25T02:58:57;5.50;99.90
60473;DHT22;46318;52.716;6.444;2023-04-25T03:01:23;5.50;99.90
60473;DHT22;46318;52.716;6.444;2023-04-25T03:03:49;5.50;99.90
60473;DHT22;46318;52.716;6.444;2023-04-25T03:06:15;5.50;99.90
60473;DHT22;46318;52.716;6.444;2023-04-25T03:08:41;5.50;99.90
60473;DHT22;46318;52.716;6.444;2023-04-25T03:11:07;5.50;99.90
60473;DHT22;46318;52.716;6.444;2023-04-25T03:13:33;5.50;99.90
60473;DHT22;46318;52.716;6.444;2023-04-25T03:15:58;5.50;99.90
60473;DHT22;46318;52.716;6.444;2023-04-25T03:18:24;5.50;99.90
60473;DHT22;46318;52.716;6.444;2023-04-25T03:20:50;5.50;99.90
60473;DHT22;46318;52.716;6.444;2023-04-25T03:23:16;5.50;99.90
60473;DHT22;46318;52.716;6.444;2023-04-25T03:25:42;5.40;99.90
60473;DHT22;46318;52.716;6.444;2023-04-25T03:28:08;5.50;99.90
60473;DHT22;46318;52.716;6.444;2023-04-25T03:30:34;5.40;99.90
60473;DHT22;46318;52.716;6.444;2023-04-25T03:32:59;5.40;99.90
60473;DHT22;46318;52.716;6.444;2023-04-25T03:35:25;5.40;99.90
60473;DHT22;46318;52.716;6.444;2023-04-25T03:37:51;5.40;99.90
60473;DHT22;46318;52.716;6.444;2023-04-25T03:40:17;5.40;99.90
60473;DHT22;46318;52.716;6.444;2023-04-25T03:42:43;5.40;99.90
60473;DHT22;46318;52.716;6.444;2023-04-25T03:45:09;5.40;99.90
60473;DHT22;46318;52.716;6.444;2023-04-25T03:47:34;5.40;99.90
60473;DHT22;46318;52.716;6.444;2023-04-25T03:50:00;5.40;99.90
60473;DHT22;46318;52.716;6.444;2023-04-25T03:52:27;5.40;99.90
60473;DHT22;46318;52.716;6.444;2023-04-25T03:54:53;5.40;99.90
60473;DHT22;46318;52.716;6.444;2023-04-25T03:57:19;5.40;99.90
60473;DHT22;46318;52.716;6.444;2023-04-25T03:59:45;5.40;99.90
60473;DHT22;46318;52.716;6.444;2023-04-25T04:02:11;5.40;99.90
60473;DHT22;46318;52.716;6.444;2023-04-25T04:04:39;5.40;99.90
60473;DHT22;46318;52.716;6.444;2023-04-25T04:07:05;5.40;99.90
60473;DHT22;46318;52.716;6.444;2023-04-25T04:09:31;5.40;99.90
60473;DHT22;46318;52.716;6.444;2023-04-25T04:11:56;5.40;99.90
60473;DHT22;46318;52.716;6.444;2023-04-25T04:14:22;5.40;99.90
60473;DHT22;46318;52.716;6.444;2023-04-25T04:16:48;5.40;99.90
60473;DHT22;46318;52.716;6.444;2023-04-25T04:19:14;5.40;99.90
60473;DHT22;46318;52.716;6.444;2023-04-25T04:21:40;5.40;99.90
60473;DHT22;46318;52.716;6.444;2023-04-25T04:24:06;5.30;99.90
60473;DHT22;46318;52.716;6.444;2023-04-25T04:26:32;5.30;99.90
60473;DHT22;46318;52.716;6.444;2023-04-25T04:29:00;5.30;99.90
60473;DHT22;46318;52.716;6.444;2023-04-25T04:31:25;5.30;99.90
60473;DHT22;46318;52.716;6.444;2023-04-25T04:33:51;5.30;99.90
60473;DHT22;46318;52.716;6.444;2023-04-25T04:36:17;5.30;99.90
60473;DHT22;46318;52.716;6.444;2023-04-25T04:38:47;5.30;99.90
60473;DHT22;46318;52.716;6.444;2023-04-25T04:41:13;5.30;99.90
60473;DHT22;46318;52.716;6.444;2023-04-25T04:43:39;5.30;99.90
60473;DHT22;46318;52.716;6.444;2023-04-25T04:46:05;5.30;99.90
60473;DHT22;46318;52.716;6.444;2023-04-25T04:48:32;5.30;99.90
60473;DHT22;46318;52.716;6.444;2023-04-25T04:51:00;5.30;99.90
60473;DHT22;46318;52.716;6.444;2023-04-25T04:53:27;5.30;99.90
60473;DHT22;46318;52.716;6.444;2023-04-25T04:55:54;5.20;99.90
60473;DHT22;46318;52.716;6.444;2023-04-25T04:58:19;5.20;99.90
60473;DHT22;46318;52.716;6.444;2023-04-25T05:00:45;5.20;99.90
60473;DHT22;46318;52.716;6.444;2023-04-25T05:03:11;5.20;99.90
60473;DHT22;46318;52.716;6.444;2023-04-25T05:05:37;5.20;99.90
60473;DHT22;46318;52.716;6.444;2023-04-25T05:08:05;5.20;99.90
60473;DHT22;46318;52.716;6.444;2023-04-25T05:10:31;5.20;99.90
60473;DHT22;46318;52.716;6.444;2023-04-25T05:12:58;5.20;99.90
60473;DHT22;46318;52.716;6.444;2023-04-25T05:15:24;5.20;99.90
60473;DHT22;46318;52.716;6.444;2023-04-25T05:17:50;5.20;99.90
60473;DHT22;46318;52.716;6.444;2023-04-25T05:20:16;5.20;99.90
60473;DHT22;46318;52.716;6.444;2023-04-25T05:22:46;5.20;99.90
60473;DHT22;46318;52.716;6.444;2023-04-25T05:25:12;5.20;99.90
60473;DHT22;46318;52.716;6.444;2023-04-25T05:27:38;5.20;99.90
60473;DHT22;46318;52.716;6.444;2023-04-25T05:30:04;5.20;99.90
60473;DHT22;46318;52.716;6.444;2023-04-25T05:32:31;5.30;99.90
60473;DHT22;46318;52.716;6.444;2023-04-25T05:34:57;5.30;99.90
60473;DHT22;46318;52.716;6.444;2023-04-25T05:37:22;5.30;99.90
60473;DHT22;46318;52.716;6.444;2023-04-25T05:39:48;5.30;99.90
60473;DHT22;46318;52.716;6.444;2023-04-25T05:42:14;5.30;99.90
60473;DHT22;46318;52.716;6.444;2023-04-25T05:44:40;5.30;99.90
60473;DHT22;46318;52.716;6.444;2023-04-25T05:47:06;5.30;99.90
60473;DHT22;46318;52.716;6.444;2023-04-25T05:49:33;5.30;99.90
60473;DHT22;46318;52.716;6.444;2023-04-25T05:51:59;5.30;99.90
60473;DHT22;46318;52.716;6.444;2023-04-25T05:54:25;5.30;99.90
60473;DHT22;46318;52.716;6.444;2023-04-25T05:56:51;5.40;99.90
60473;DHT22;46318;52.716;6.444;2023-04-25T05:59:17;5.30;99.90
60473;DHT22;46318;52.716;6.444;2023-04-25T06:01:46;5.40;99.90
60473;DHT22;46318;52.716;6.444;2023-04-25T06:04:12;5.40;99.90
60473;DHT22;46318;52.716;6.444;2023-04-25T06:06:38;5.40;99.90
60473;DHT22;46318;52.716;6.444;2023-04-25T06:09:04;5.40;99.90
60473;DHT22;46318;52.716;6.444;2023-04-25T06:11:30;5.40;99.90
60473;DHT22;46318;52.716;6.444;2023-04-25T06:13:55;5.40;99.90
60473;DHT22;46318;52.716;6.444;2023-04-25T06:16:21;5.40;99.90
60473;DHT22;46318;52.716;6.444;2023-04-25T06:18:47;5.40;99.90
60473;DHT22;46318;52.716;6.444;2023-04-25T06:21:13;5.40;99.90
60473;DHT22;46318;52.716;6.444;2023-04-25T06:23:39;5.50;99.90
60473;DHT22;46318;52.716;6.444;2023-04-25T06:26:05;5.50;99.90
60473;DHT22;46318;52.716;6.444;2023-04-25T06:28:31;5.50;99.90
60473;DHT22;46318;52.716;6.444;2023-04-25T06:30:56;5.50;99.90
60473;DHT22;46318;52.716;6.444;2023-04-25T06:33:22;5.50;99.90
60473;DHT22;46318;52.716;6.444;2023-04-25T06:35:49;5.60;99.90
60473;DHT22;46318;52.716;6.444;2023-04-25T06:38:15;5.60;99.90
60473;DHT22;46318;52.716;6.444;2023-04-25T06:40:41;5.60;99.90
60473;DHT22;46318;52.716;6.444;2023-04-25T06:43:07;5.60;99.90
60473;DHT22;46318;52.716;6.444;2023-04-25T06:45:33;5.70;99.90
60473;DHT22;46318;52.716;6.444;2023-04-25T06:48:00;5.70;99.90
60473;DHT22;46318;52.716;6.444;2023-04-25T06:50:26;5.70;99.90
60473;DHT22;46318;52.716;6.444;2023-04-25T06:52:52;5.80;99.90
60473;DHT22;46318;52.716;6.444;2023-04-25T06:55:18;5.90;99.90
60473;DHT22;46318;52.716;6.444;2023-04-25T06:57:43;5.90;99.90
60473;DHT22;46318;52.716;6.444;2023-04-25T07:00:10;6.00;99.90
60473;DHT22;46318;52.716;6.444;2023-04-25T07:02:36;6.00;99.90
60473;DHT22;46318;52.716;6.444;2023-04-25T07:05:03;6.10;99.90
60473;DHT22;46318;52.716;6.444;2023-04-25T07:07:32;6.20;99.90
60473;DHT22;46318;52.716;6.444;2023-04-25T07:09:59;6.30;99.90
60473;DHT22;46318;52.716;6.444;2023-04-25T07:12:25;6.40;99.90
60473;DHT22;46318;52.716;6.444;2023-04-25T07:14:51;6.40;99.90
60473;DHT22;46318;52.716;6.444;2023-04-25T07:17:17;6.50;99.90
60473;DHT22;46318;52.716;6.444;2023-04-25T07:19:43;6.50;99.90
60473;DHT22;46318;52.716;6.444;2023-04-25T07:22:09;6.60;99.90
60473;DHT22;46318;52.716;6.444;2023-04-25T07:24:35;6.60;99.90
60473;DHT22;46318;52.716;6.444;2023-04-25T07:27:00;6.60;99.90
60473;DHT22;46318;52.716;6.444;2023-04-25T07:29:27;6.60;99.90
60473;DHT22;46318;52.716;6.444;2023-04-25T07:31:53;6.70;99.90
60473;DHT22;46318;52.716;6.444;2023-04-25T07:34:19;6.70;99.90
60473;DHT22;46318;52.716;6.444;2023-04-25T07:36:45;6.80;99.90
60473;DHT22;46318;52.716;6.444;2023-04-25T07:39:11;6.90;99.90
60473;DHT22;46318;52.716;6.444;2023-04-25T07:41:37;6.90;99.90
60473;DHT22;46318;52.716;6.444;2023-04-25T07:44:03;7.00;99.90
60473;DHT22;46318;52.716;6.444;2023-04-25T07:46:29;7.10;99.90
60473;DHT22;46318;52.716;6.444;2023-04-25T07:48:55;7.20;99.90
60473;DHT22;46318;52.716;6.444;2023-04-25T07:51:21;7.30;99.90
60473;DHT22;46318;52.716;6.444;2023-04-25T07:53:47;7.30;99.90
60473;DHT22;46318;52.716;6.444;2023-04-25T07:56:13;7.40;99.90
60473;DHT22;46318;52.716;6.444;2023-04-25T07:58:39;7.40;99.90
60473;DHT22;46318;52.716;6.444;2023-04-25T08:01:05;7.50;99.90
60473;DHT22;46318;52.716;6.444;2023-04-25T08:03:30;7.50;99.90
60473;DHT22;46318;52.716;6.444;2023-04-25T08:05:56;7.60;99.90
60473;DHT22;46318;52.716;6.444;2023-04-25T08:08:22;7.60;99.90
60473;DHT22;46318;52.716;6.444;2023-04-25T08:10:48;7.70;99.90
60473;DHT22;46318;52.716;6.444;2023-04-25T08:13:14;7.80;99.90
60473;DHT22;46318;52.716;6.444;2023-04-25T08:15:40;7.90;99.90
60473;DHT22;46318;52.716;6.444;2023-04-25T08:18:06;8.00;99.90
60473;DHT22;46318;52.716;6.444;2023-04-25T08:20:32;8.00;99.90
60473;DHT22;46318;52.716;6.444;2023-04-25T08:22:57;8.00;99.90
60473;DHT22;46318;52.716;6.444;2023-04-25T08:25:23;8.00;99.90
60473;DHT22;46318;52.716;6.444;2023-04-25T08:27:49;7.90;99.90
60473;DHT22;46318;52.716;6.444;2023-04-25T08:30:15;7.80;99.90
60473;DHT22;46318;52.716;6.444;2023-04-25T08:32:41;7.60;99.90
60473;DHT22;46318;52.716;6.444;2023-04-25T08:35:07;7.40;99.90
60473;DHT22;46318;52.716;6.444;2023-04-25T08:37:33;7.20;99.90
60473;DHT22;46318;52.716;6.444;2023-04-25T08:39:59;7.10;99.90
60473;DHT22;46318;52.716;6.444;2023-04-25T08:42:27;7.00;99.90
60473;DHT22;46318;52.716;6.444;2023-04-25T08:44:53;7.00;99.90
60473;DHT22;46318;52.716;6.444;2023-04-25T08:47:22;7.00;99.90
60473;DHT22;46318;52.716;6.444;2023-04-25T08:49:48;7.00;99.90
60473;DHT22;46318;52.716;6.444;2023-04-25T08:52:17;7.10;99.90
60473;DHT22;46318;52.716;6.444;2023-04-25T08:54:48;7.10;99.90
60473;DHT22;46318;52.716;6.444;2023-04-25T08:57:15;7.10;99.90
60473;DHT22;46318;52.716;6.444;2023-04-25T08:59:41;7.10;99.90
60473;DHT22;46318;52.716;6.444;2023-04-25T09:02:11;7.20;99.90
60473;DHT22;46318;52.716;6.444;2023-04-25T09:04:43;7.20;99.90
60473;DHT22;46318;52.716;6.444;2023-04-25T09:07:09;7.20;99.90
60473;DHT22;46318;52.716;6.444;2023-04-25T09:09:35;7.30;99.90
60473;DHT22;46318;52.716;6.444;2023-04-25T09:12:01;7.40;99.90
60473;DHT22;46318;52.716;6.444;2023-04-25T09:14:27;7.50;99.90
60473;DHT22;46318;52.716;6.444;2023-04-25T09:16:57;7.50;99.90
60473;DHT22;46318;52.716;6.444;2023-04-25T09:19:28;7.70;99.90
60473;DHT22;46318;52.716;6.444;2023-04-25T09:21:57;7.80;99.90
60473;DHT22;46318;52.716;6.444;2023-04-25T09:24:41;7.90;99.90
60473;DHT22;46318;52.716;6.444;2023-04-25T09:27:10;8.00;99.90
60473;DHT22;46318;52.716;6.444;2023-04-25T09:29:43;8.10;99.90
60473;DHT22;46318;52.716;6.444;2023-04-25T09:34:55;8.30;99.90
60473;DHT22;46318;52.716;6.444;2023-04-25T09:37:24;8.40;99.90
60473;DHT22;46318;52.716;6.444;2023-04-25T09:39:56;8.40;99.90
60473;DHT22;46318;52.716;6.444;2023-04-25T09:42:26;8.40;99.90
60473;DHT22;46318;52.716;6.444;2023-04-25T09:44:55;8.50;99.90
60473;DHT22;46318;52.716;6.444;2023-04-25T09:47:23;8.60;99.90
60473;DHT22;46318;52.716;6.444;2023-04-25T09:49:51;8.70;99.90
60473;DHT22;46318;52.716;6.444;2023-04-25T09:52:20;8.70;99.90
60473;DHT22;46318;52.716;6.444;2023-04-25T09:54:48;8.80;99.90
60473;DHT22;46318;52.716;6.444;2023-04-25T09:59:53;8.90;99.90
60473;DHT22;46318;52.716;6.444;2023-04-25T10:02:25;9.00;99.90
60473;DHT22;46318;52.716;6.444;2023-04-25T10:04:53;9.10;99.90
60473;DHT22;46318;52.716;6.444;2023-04-25T10:07:28;9.10;99.90
60473;DHT22;46318;52.716;6.444;2023-04-25T10:10:01;9.20;99.70
60473;DHT22;46318;52.716;6.444;2023-04-25T10:12:29;9.30;99.90
60473;DHT22;46318;52.716;6.444;2023-04-25T10:14:58;9.40;99.00
60473;DHT22;46318;52.716;6.444;2023-04-25T10:17:24;9.40;98.20
60473;DHT22;46318;52.716;6.444;2023-04-25T10:19:54;9.50;98.40
60473;DHT22;46318;52.716;6.444;2023-04-25T10:22:35;9.50;98.50
60473;DHT22;46318;52.716;6.444;2023-04-25T10:25:03;9.40;97.80
60473;DHT22;46318;52.716;6.444;2023-04-25T10:27:31;9.30;99.30
60473;DHT22;46318;52.716;6.444;2023-04-25T10:30:01;9.20;99.40
60473;DHT22;46318;52.716;6.444;2023-04-25T10:32:33;9.20;99.80
60473;DHT22;46318;52.716;6.444;2023-04-25T10:35:23;9.10;99.90
60473;DHT22;46318;52.716;6.444;2023-04-25T10:37:58;9.10;99.10
60473;DHT22;46318;52.716;6.444;2023-04-25T10:40:32;9.10;98.30
60473;DHT22;46318;52.716;6.444;2023-04-25T10:43:33;9.00;98.20
60473;DHT22;46318;52.716;6.444;2023-04-25T10:46:01;8.90;97.80
60473;DHT22;46318;52.716;6.444;2023-04-25T10:48:31;8.90;98.50
60473;DHT22;46318;52.716;6.444;2023-04-25T10:51:10;8.80;97.70
60473;DHT22;46318;52.716;6.444;2023-04-25T10:53:37;8.70;98.30
60473;DHT22;46318;52.716;6.444;2023-04-25T10:56:22;8.70;98.70
60473;DHT22;46318;52.716;6.444;2023-04-25T10:58:49;8.70;99.10
60473;DHT22;46318;52.716;6.444;2023-04-25T11:01:24;8.70;98.90
60473;DHT22;46318;52.716;6.444;2023-04-25T11:03:57;8.80;98.80
60473;DHT22;46318;52.716;6.444;2023-04-25T11:06:37;8.80;99.10
60473;DHT22;46318;52.716;6.444;2023-04-25T11:09:26;8.90;99.00
60473;DHT22;46318;52.716;6.444;2023-04-25T11:11:57;9.00;99.50
60473;DHT22;46318;52.716;6.444;2023-04-25T11:14:24;9.10;98.90
60473;DHT22;46318;52.716;6.444;2023-04-25T11:16:54;9.20;98.00
60473;DHT22;46318;52.716;6.444;2023-04-25T11:19:22;9.20;97.20
60473;DHT22;46318;52.716;6.444;2023-04-25T11:21:48;9.20;97.40
60473;DHT22;46318;52.716;6.444;2023-04-25T11:24:16;9.30;97.10
60473;DHT22;46318;52.716;6.444;2023-04-25T11:26:43;9.40;95.90
60473;DHT22;46318;52.716;6.444;2023-04-25T11:29:13;9.50;95.40
60473;DHT22;46318;52.716;6.444;2023-04-25T11:31:39;9.60;95.70
60473;DHT22;46318;52.716;6.444;2023-04-25T11:34:09;9.70;95.40
60473;DHT22;46318;52.716;6.444;2023-04-25T11:36:37;9.80;94.90
60473;DHT22;46318;52.716;6.444;2023-04-25T11:39:04;9.90;94.60
60473;DHT22;46318;52.716;6.444;2023-04-25T11:41:31;10.00;94.50
60473;DHT22;46318;52.716;6.444;2023-04-25T11:43:57;10.10;94.10
60473;DHT22;46318;52.716;6.444;2023-04-25T11:46:23;10.20;93.60
60473;DHT22;46318;52.716;6.444;2023-04-25T11:48:49;10.30;93.70
60473;DHT22;46318;52.716;6.444;2023-04-25T11:51:16;10.30;93.00
60473;DHT22;46318;52.716;6.444;2023-04-25T11:53:44;10.40;92.70
60473;DHT22;46318;52.716;6.444;2023-04-25T11:56:10;10.50;92.70
60473;DHT22;46318;52.716;6.444;2023-04-25T11:58:59;10.60;92.70
60473;DHT22;46318;52.716;6.444;2023-04-25T12:01:36;10.70;90.70
60473;DHT22;46318;52.716;6.444;2023-04-25T12:04:15;10.80;92.10
60473;DHT22;46318;52.716;6.444;2023-04-25T12:06:53;10.80;92.20
60473;DHT22;46318;52.716;6.444;2023-04-25T12:09:21;10.90;91.70
60473;DHT22;46318;52.716;6.444;2023-04-25T12:11:55;11.00;90.90
60473;DHT22;46318;52.716;6.444;2023-04-25T12:14:27;11.10;89.10
60473;DHT22;46318;52.716;6.444;2023-04-25T12:16:56;11.20;89.30
60473;DHT22;46318;52.716;6.444;2023-04-25T12:19:24;11.20;89.80
60473;DHT22;46318;52.716;6.444;2023-04-25T12:21:51;11.20;90.50
60473;DHT22;46318;52.716;6.444;2023-04-25T12:24:26;11.10;91.10
60473;DHT22;46318;52.716;6.444;2023-04-25T12:27:10;11.00;91.40
60473;DHT22;46318;52.716;6.444;2023-04-25T12:29:54;11.00;88.60
60473;DHT22;46318;52.716;6.444;2023-04-25T12:32:21;10.90;90.50
60473;DHT22;46318;52.716;6.444;2023-04-25T12:34:47;10.80;91.10
60473;DHT22;46318;52.716;6.444;2023-04-25T12:37:13;10.80;91.30
60473;DHT22;46318;52.716;6.444;2023-04-25T12:39:39;10.80;91.50
60473;DHT22;46318;52.716;6.444;2023-04-25T12:42:05;10.80;90.80
60473;DHT22;46318;52.716;6.444;2023-04-25T12:44:33;10.90;91.40
60473;DHT22;46318;52.716;6.444;2023-04-25T12:47:00;11.10;91.50
60473;DHT22;46318;52.716;6.444;2023-04-25T12:49:26;11.10;91.80
60473;DHT22;46318;52.716;6.444;2023-04-25T12:51:52;11.20;91.80
60473;DHT22;46318;52.716;6.444;2023-04-25T12:54:17;11.30;91.10
60473;DHT22;46318;52.716;6.444;2023-04-25T12:56:43;11.30;89.60
60473;DHT22;46318;52.716;6.444;2023-04-25T12:59:09;11.30;88.80
60473;DHT22;46318;52.716;6.444;2023-04-25T13:01:35;11.30;87.20
60473;DHT22;46318;52.716;6.444;2023-04-25T13:04:01;11.20;85.60
60473;DHT22;46318;52.716;6.444;2023-04-25T13:06:27;11.20;85.30
60473;DHT22;46318;52.716;6.444;2023-04-25T13:08:55;11.30;83.20
60473;DHT22;46318;52.716;6.444;2023-04-25T13:11:21;11.50;83.80
60473;DHT22;46318;52.716;6.444;2023-04-25T13:13:47;11.60;82.40
60473;DHT22;46318;52.716;6.444;2023-04-25T13:16:12;11.80;83.90
60473;DHT22;46318;52.716;6.444;2023-04-25T13:18:42;11.90;85.20
60473;DHT22;46318;52.716;6.444;2023-04-25T13:21:09;11.90;86.90
60473;DHT22;46318;52.716;6.444;2023-04-25T13:23:38;11.80;88.20
60473;DHT22;46318;52.716;6.444;2023-04-25T13:26:04;11.70;89.40
60473;DHT22;46318;52.716;6.444;2023-04-25T13:28:30;11.50;90.80
60473;DHT22;46318;52.716;6.444;2023-04-25T13:30:56;11.40;91.30
60473;DHT22;46318;52.716;6.444;2023-04-25T13:33:23;11.30;91.90
60473;DHT22;46318;52.716;6.444;2023-04-25T13:35:49;11.20;92.40
60473;DHT22;46318;52.716;6.444;2023-04-25T13:38:25;11.00;93.50
60473;DHT22;46318;52.716;6.444;2023-04-25T13:40:51;10.90;94.70
60473;DHT22;46318;52.716;6.444;2023-04-25T13:43:21;11.00;95.40
60473;DHT22;46318;52.716;6.444;2023-04-25T13:45:48;11.10;96.10
60473;DHT22;46318;52.716;6.444;2023-04-25T13:48:15;11.20;95.20
60473;DHT22;46318;52.716;6.444;2023-04-25T13:50:41;11.40;95.10
60473;DHT22;46318;52.716;6.444;2023-04-25T13:53:07;11.50;94.70
60473;DHT22;46318;52.716;6.444;2023-04-25T13:55:34;11.50;93.80
60473;DHT22;46318;52.716;6.444;2023-04-25T13:58:02;11.60;93.80
60473;DHT22;46318;52.716;6.444;2023-04-25T14:00:35;11.50;93.40
60473;DHT22;46318;52.716;6.444;2023-04-25T14:03:03;11.50;93.70
60473;DHT22;46318;52.716;6.444;2023-04-25T14:05:32;11.40;92.90
60473;DHT22;46318;52.716;6.444;2023-04-25T14:08:06;11.30;92.90
60473;DHT22;46318;52.716;6.444;2023-04-25T14:10:33;11.20;93.10
60473;DHT22;46318;52.716;6.444;2023-04-25T14:13:00;11.10;92.70
60473;DHT22;46318;52.716;6.444;2023-04-25T14:15:29;11.00;92.00
60473;DHT22;46318;52.716;6.444;2023-04-25T14:17:58;11.00;91.80
60473;DHT22;46318;52.716;6.444;2023-04-25T14:20:25;11.10;91.20
60473;DHT22;46318;52.716;6.444;2023-04-25T14:22:51;11.20;90.70
60473;DHT22;46318;52.716;6.444;2023-04-25T14:25:20;11.30;89.50
60473;DHT22;46318;52.716;6.444;2023-04-25T14:27:46;11.30;87.80
60473;DHT22;46318;52.716;6.444;2023-04-25T14:30:16;11.20;88.20
60473;DHT22;46318;52.716;6.444;2023-04-25T14:32:43;11.10;90.30
60473;DHT22;46318;52.716;6.444;2023-04-25T14:35:09;11.00;91.50
60473;DHT22;46318;52.716;6.444;2023-04-25T14:37:35;10.80;92.20
60473;DHT22;46318;52.716;6.444;2023-04-25T14:40:01;10.70;92.40
60473;DHT22;46318;52.716;6.444;2023-04-25T14:42:27;10.60;92.90
60473;DHT22;46318;52.716;6.444;2023-04-25T14:44:53;10.50;92.90
60473;DHT22;46318;52.716;6.444;2023-04-25T14:47:19;10.40;93.00
60473;DHT22;46318;52.716;6.444;2023-04-25T14:49:45;10.30;92.40
60473;DHT22;46318;52.716;6.444;2023-04-25T14:52:16;10.30;92.10
60473;DHT22;46318;52.716;6.444;2023-04-25T14:54:42;10.20;91.90
60473;DHT22;46318;52.716;6.444;2023-04-25T14:57:08;10.20;91.90
60473;DHT22;46318;52.716;6.444;2023-04-25T14:59:34;10.30;92.10
60473;DHT22;46318;52.716;6.444;2023-04-25T15:02:00;10.30;91.80
60473;DHT22;46318;52.716;6.444;2023-04-25T15:04:26;10.30;91.40
60473;DHT22;46318;52.716;6.444;2023-04-25T15:06:51;10.40;91.20
60473;DHT22;46318;52.716;6.444;2023-04-25T15:09:17;10.50;91.20
60473;DHT22;46318;52.716;6.444;2023-04-25T15:11:43;10.60;91.00
60473;DHT22;46318;52.716;6.444;2023-04-25T15:14:09;10.60;91.00
60473;DHT22;46318;52.716;6.444;2023-04-25T15:16:35;10.50;91.00
60473;DHT22;46318;52.716;6.444;2023-04-25T15:19:01;10.50;90.90
60473;DHT22;46318;52.716;6.444;2023-04-25T15:21:30;10.50;91.20
60473;DHT22;46318;52.716;6.444;2023-04-25T15:23:56;10.40;91.30
60473;DHT22;46318;52.716;6.444;2023-04-25T15:26:22;10.40;91.50
60473;DHT22;46318;52.716;6.444;2023-04-25T15:28:48;10.40;91.80
60473;DHT22;46318;52.716;6.444;2023-04-25T15:31:14;10.40;91.80
60473;DHT22;46318;52.716;6.444;2023-04-25T15:33:40;10.30;91.50
60473;DHT22;46318;52.716;6.444;2023-04-25T15:36:06;10.30;91.60
60473;DHT22;46318;52.716;6.444;2023-04-25T15:38:32;10.20;91.80
60473;DHT22;46318;52.716;6.444;2023-04-25T15:40:58;10.20;91.90
60473;DHT22;46318;52.716;6.444;2023-04-25T15:43:26;10.10;92.00
60473;DHT22;46318;52.716;6.444;2023-04-25T15:45:52;10.00;92.50
60473;DHT22;46318;52.716;6.444;2023-04-25T15:48:18;10.00;92.40